createdAt,value
2017-04-21T00:00:31.935Z,27.39
2017-04-21T00:01:29.813Z,30.50
2017-04-21T00:02:27.704Z,27.34
2017-04-21T00:03:25.547Z,28.23
2017-04-21T00:04:23.402Z,29.84
2017-04-21T00:05:21.273Z,27.47
2017-04-21T00:06:19.175Z,26.33
2017-04-21T00:07:17.080Z,28.94
2017-04-21T00:08:15.064Z,29.01
2017-04-21T00:09:12.952Z,31.43
2017-04-21T00:10:10.809Z,30.17
2017-04-21T00:11:08.708Z,28.91
2017-04-21T00:12:06.553Z,30.60
2017-04-21T00:13:04.564Z,30.23
2017-04-21T00:14:02.410Z,31.30
2017-04-21T00:15:00.331Z,29.50
2017-04-21T00:15:58.237Z,32.34
2017-04-21T00:16:56.110Z,30.03
2017-04-21T00:17:53.969Z,28.13
2017-04-21T00:18:51.899Z,29.04
2017-04-21T00:19:49.747Z,33.06
2017-04-21T00:20:47.635Z,30.74
2017-04-21T00:21:45.615Z,34.29
2017-04-21T00:22:43.454Z,29.86
2017-04-21T00:23:41.499Z,30.11
2017-04-21T00:24:39.402Z,30.16
2017-04-21T00:25:37.369Z,29.49
2017-04-21T00:26:35.233Z,30.00
2017-04-21T00:27:33.270Z,31.37
2017-04-21T00:28:31.128Z,33.47
2017-04-21T00:29:28.935Z,29.57
2017-04-21T00:30:26.739Z,31.56
2017-04-21T00:31:24.605Z,31.79
2017-04-21T00:32:22.492Z,30.21
2017-04-21T00:33:20.329Z,33.19
2017-04-21T00:34:18.380Z,31.71
2017-04-21T00:35:16.247Z,30.23
2017-04-21T00:36:14.096Z,32.93
2017-04-21T00:37:11.973Z,29.49
2017-04-21T00:38:09.851Z,30.99
2017-04-21T00:39:07.740Z,31.53
2017-04-21T00:40:05.656Z,30.10
2017-04-21T00:41:03.540Z,36.67
2017-04-21T00:42:01.414Z,34.01
2017-04-21T00:42:59.269Z,35.56
2017-04-21T00:43:57.156Z,34.06
2017-04-21T00:44:55.038Z,29.71
2017-04-21T00:45:52.887Z,29.83
2017-04-21T00:46:50.787Z,28.31
2017-04-21T00:47:48.645Z,30.40
2017-04-21T00:48:46.508Z,32.19
2017-04-21T00:49:44.349Z,32.20
2017-04-21T00:50:42.192Z,32.73
2017-04-21T00:51:40.044Z,32.37
2017-04-21T00:52:37.959Z,34.08
2017-04-21T00:53:35.857Z,32.89
2017-04-21T00:54:33.800Z,29.97
2017-04-21T00:55:31.616Z,31.59
2017-04-21T00:56:29.536Z,31.75
2017-04-21T00:57:27.420Z,30.10
2017-04-21T00:58:25.268Z,34.41
2017-04-21T00:59:23.232Z,31.04
2017-04-21T01:00:21.146Z,32.70
2017-04-21T01:01:19.055Z,34.73
2017-04-21T01:02:17.036Z,31.30
2017-04-21T01:03:14.929Z,29.73
2017-04-21T01:04:12.728Z,33.24
2017-04-21T01:05:10.708Z,29.95
2017-04-21T01:06:08.558Z,28.31
2017-04-21T01:07:06.419Z,31.42
2017-04-21T01:08:04.280Z,34.77
2017-04-21T01:09:02.184Z,31.73
2017-04-21T01:10:00.113Z,34.68
2017-04-21T01:10:58.024Z,34.04
2017-04-21T01:11:55.884Z,34.52
2017-04-21T01:12:53.776Z,31.23
2017-04-21T01:13:51.680Z,28.87
2017-04-21T01:14:49.493Z,34.52
2017-04-21T01:15:47.351Z,36.54
2017-04-21T01:16:45.233Z,31.43
2017-04-21T01:17:43.090Z,34.77
2017-04-21T01:18:41.019Z,31.47
2017-04-21T01:19:38.900Z,30.60
2017-04-21T01:20:36.715Z,30.80
2017-04-21T01:21:34.684Z,32.88
2017-04-21T01:22:32.528Z,32.53
2017-04-21T01:23:30.412Z,35.50
2017-04-21T01:24:28.272Z,33.03
2017-04-21T01:25:26.101Z,32.23
2017-04-21T01:26:24.048Z,33.35
2017-04-21T01:27:21.933Z,31.20
2017-04-21T01:28:19.837Z,32.82
2017-04-21T01:29:17.688Z,30.23
2017-04-21T01:30:15.625Z,33.05
2017-04-21T01:31:13.627Z,29.10
2017-04-21T01:32:11.482Z,33.83
2017-04-21T01:33:09.338Z,32.15
2017-04-21T01:34:07.167Z,31.29
2017-04-21T01:35:05.048Z,32.61
2017-04-21T01:36:02.935Z,32.42
2017-04-21T01:37:00.867Z,34.70
2017-04-21T01:37:58.724Z,33.78
2017-04-21T01:38:56.863Z,30.77
2017-04-21T01:39:54.809Z,33.42
2017-04-21T01:40:52.689Z,31.57
2017-04-21T01:41:50.524Z,34.53
2017-04-21T01:42:48.396Z,33.50
2017-04-21T01:43:46.233Z,29.93
2017-04-21T01:44:44.092Z,32.98
2017-04-21T01:45:41.960Z,31.77
2017-04-21T01:46:39.892Z,33.37
2017-04-21T01:47:37.741Z,32.30
2017-04-21T01:48:35.623Z,31.66
2017-04-21T01:49:33.513Z,31.58
2017-04-21T01:50:31.348Z,31.78
2017-04-21T01:51:29.156Z,32.00
2017-04-21T01:52:27.059Z,34.41
2017-04-21T01:53:24.920Z,30.86
2017-04-21T01:54:22.735Z,33.50
2017-04-21T01:55:20.600Z,31.73
2017-04-21T01:56:18.464Z,29.15
2017-04-21T01:57:16.396Z,34.60
2017-04-21T01:58:15.675Z,34.63
2017-04-21T01:59:13.526Z,33.08
2017-04-21T02:00:11.546Z,32.30
2017-04-21T02:11:58.387Z,31.41
2017-04-21T02:12:56.233Z,32.27
2017-04-21T02:13:54.144Z,33.20
2017-04-21T02:14:51.988Z,30.76
2017-04-21T02:15:49.788Z,32.07
2017-04-21T02:16:47.659Z,30.77
2017-04-21T02:17:45.535Z,31.09
2017-04-21T02:18:43.415Z,31.79
2017-04-21T02:19:41.243Z,30.00
2017-04-21T02:20:39.124Z,33.03
2017-04-21T02:21:36.999Z,35.37
2017-04-21T02:22:34.855Z,32.88
2017-04-21T02:23:32.804Z,30.16
2017-04-21T02:24:30.992Z,31.54
2017-04-21T02:25:28.814Z,30.93
2017-04-21T02:26:26.682Z,36.65
2017-04-21T02:27:24.505Z,35.21
2017-04-21T02:28:22.328Z,33.07
2017-04-21T02:29:20.155Z,32.42
2017-04-21T02:30:17.991Z,32.89
2017-04-21T02:31:15.826Z,32.74
2017-04-21T02:32:13.624Z,31.06
2017-04-21T02:33:11.572Z,33.05
2017-04-21T02:34:09.407Z,34.67
2017-04-21T02:35:07.347Z,31.57
2017-04-21T02:36:05.151Z,34.43
2017-04-21T02:37:03.097Z,36.43
2017-04-21T02:38:00.993Z,31.53
2017-04-21T02:38:58.793Z,29.80
2017-04-21T02:39:56.732Z,36.35
2017-04-21T02:40:54.566Z,32.33
2017-04-21T02:41:52.527Z,34.82
2017-04-21T02:42:50.462Z,35.95
2017-04-21T02:43:48.282Z,33.60
2017-04-21T02:44:46.148Z,33.65
2017-04-21T02:45:44.063Z,30.90
2017-04-21T02:46:41.963Z,33.68
2017-04-21T02:47:39.786Z,33.00
2017-04-21T02:48:37.653Z,31.32
2017-04-21T02:49:35.444Z,34.60
2017-04-21T02:50:33.507Z,34.03
2017-04-21T02:51:31.370Z,34.57
2017-04-21T02:52:29.287Z,36.35
2017-04-21T02:53:27.140Z,34.10
2017-04-21T02:54:25.031Z,35.82
2017-04-21T02:55:22.848Z,36.45
2017-04-21T02:56:20.723Z,37.68
2017-04-21T02:57:18.650Z,33.20
2017-04-21T02:58:16.527Z,34.20
2017-04-21T02:59:14.579Z,32.12
2017-04-21T03:00:12.475Z,36.90
2017-04-21T03:01:10.271Z,33.70
2017-04-21T03:02:08.126Z,34.29
2017-04-21T03:03:05.951Z,36.63
2017-04-21T03:04:03.924Z,35.14
2017-04-21T03:05:01.776Z,31.43
2017-04-21T03:05:59.595Z,32.42
2017-04-21T03:06:57.431Z,29.50
2017-04-21T03:07:55.284Z,33.93
2017-04-21T03:08:53.087Z,30.85
2017-04-21T03:09:50.855Z,33.40
2017-04-21T03:10:48.839Z,30.59
2017-04-21T03:11:46.692Z,35.11
2017-04-21T03:12:44.548Z,33.57
2017-04-21T03:13:42.459Z,32.05
2017-04-21T03:14:40.370Z,31.87
2017-04-21T03:15:38.184Z,31.63
2017-04-21T03:16:36.092Z,33.57
2017-04-21T03:17:34.035Z,33.74
2017-04-21T03:18:31.864Z,29.39
2017-04-21T03:19:29.741Z,33.81
2017-04-21T03:20:27.667Z,32.56
2017-04-21T03:21:25.544Z,32.73
2017-04-21T03:22:23.415Z,33.82
2017-04-21T03:23:21.252Z,32.97
2017-04-21T03:24:19.193Z,34.36
2017-04-21T03:25:17.061Z,33.03
2017-04-21T03:26:14.898Z,29.82
2017-04-21T03:27:12.793Z,33.49
2017-04-21T03:28:10.639Z,33.50
2017-04-21T03:29:08.539Z,33.58
2017-04-21T03:30:06.406Z,32.81
2017-04-21T03:31:04.368Z,33.80
2017-04-21T03:32:02.208Z,35.14
2017-04-21T03:33:00.030Z,34.37
2017-04-21T03:33:57.908Z,37.40
2017-04-21T03:34:55.724Z,35.90
2017-04-21T03:35:53.714Z,32.51
2017-04-21T03:36:51.541Z,33.43
2017-04-21T03:37:49.469Z,33.14
2017-04-21T03:38:47.368Z,35.53
2017-04-21T03:39:45.282Z,30.27
2017-04-21T03:40:43.122Z,35.51
2017-04-21T03:41:40.947Z,36.23
2017-04-21T03:42:38.859Z,32.07
2017-04-21T03:43:36.663Z,34.02
2017-04-21T03:44:34.671Z,34.34
2017-04-21T03:45:32.602Z,33.63
2017-04-21T03:46:30.468Z,34.66
2017-04-21T03:47:28.283Z,34.24
2017-04-21T03:48:26.121Z,30.63
2017-04-21T03:49:24.055Z,32.61
2017-04-21T03:50:21.882Z,35.53
2017-04-21T03:51:19.851Z,33.23
2017-04-21T03:52:17.732Z,33.66
2017-04-21T03:53:15.563Z,38.89
2017-04-21T03:54:13.492Z,36.27
2017-04-21T03:55:11.350Z,33.04
2017-04-21T03:56:09.237Z,33.07
2017-04-21T03:57:07.075Z,36.51
2017-04-21T03:58:05.045Z,33.81
2017-04-21T03:59:02.900Z,33.77
2017-04-21T04:00:00.727Z,37.53
2017-04-21T04:00:58.668Z,34.44
2017-04-21T04:01:56.523Z,32.26
2017-04-21T04:02:54.453Z,35.94
2017-04-21T04:03:52.256Z,34.61
2017-04-21T04:04:50.235Z,34.99
2017-04-21T04:05:48.066Z,35.51
2017-04-21T04:06:45.906Z,34.87
2017-04-21T04:07:43.786Z,33.23
2017-04-21T04:08:41.651Z,34.04
2017-04-21T04:09:39.579Z,28.94
2017-04-21T04:10:37.410Z,33.48
2017-04-21T04:11:35.488Z,33.19
2017-04-21T04:12:33.336Z,34.66
2017-04-21T04:13:31.167Z,35.43
2017-04-21T04:14:29.003Z,37.46
2017-04-21T04:15:26.847Z,38.36
2017-04-21T04:16:24.718Z,35.23
2017-04-21T04:17:22.629Z,36.50
2017-04-21T04:18:20.576Z,32.71
2017-04-21T04:19:18.376Z,35.04
2017-04-21T04:20:16.227Z,34.53
2017-04-21T04:21:14.133Z,34.71
2017-04-21T04:22:11.975Z,33.17
2017-04-21T04:23:09.999Z,34.87
2017-04-21T04:24:07.864Z,36.00
2017-04-21T04:25:05.845Z,32.51
2017-04-21T04:26:03.643Z,34.98
2017-04-21T04:27:01.477Z,40.29
2017-04-21T04:27:59.305Z,34.31
2017-04-21T04:28:57.115Z,31.83
2017-04-21T04:29:55.108Z,35.94
2017-04-21T04:30:52.931Z,32.80
2017-04-21T04:31:50.840Z,35.48
2017-04-21T04:32:48.729Z,32.50
2017-04-21T04:33:46.556Z,36.04
2017-04-21T04:34:44.859Z,32.07
2017-04-21T04:35:42.679Z,33.83
2017-04-21T04:36:40.529Z,36.56
2017-04-21T04:37:38.382Z,39.73
2017-04-21T04:38:36.220Z,36.77
2017-04-21T04:39:34.070Z,35.03
2017-04-21T04:40:31.898Z,38.60
2017-04-21T04:41:29.722Z,38.77
2017-04-21T04:42:27.549Z,37.36
2017-04-21T04:43:25.438Z,32.43
2017-04-21T04:44:23.276Z,37.69
2017-04-21T04:45:21.331Z,34.93
2017-04-21T04:46:19.160Z,39.15
2017-04-21T04:47:17.020Z,36.13
2017-04-21T04:48:14.900Z,35.51
2017-04-21T04:49:12.706Z,41.01
2017-04-21T04:50:10.705Z,39.47
2017-04-21T04:51:08.537Z,38.31
2017-04-21T04:52:06.484Z,36.04
2017-04-21T04:53:04.351Z,37.94
2017-04-21T04:54:02.262Z,39.50
2017-04-21T04:55:00.120Z,37.70
2017-04-21T04:55:58.013Z,39.24
2017-04-21T04:56:55.895Z,37.81
2017-04-21T04:57:53.692Z,37.46
2017-04-21T04:58:51.499Z,35.76
2017-04-21T04:59:49.334Z,35.40
2017-04-21T05:00:47.380Z,37.23
2017-04-21T05:01:45.233Z,41.61
2017-04-21T05:02:43.054Z,35.27
2017-04-21T05:03:40.989Z,40.43
2017-04-21T05:04:38.812Z,40.37
2017-04-21T05:05:36.734Z,40.66
2017-04-21T05:06:34.533Z,38.29
2017-04-21T05:07:32.564Z,38.57
2017-04-21T05:08:30.371Z,38.03
2017-04-21T05:09:28.191Z,37.33
2017-04-21T05:10:26.127Z,41.64
2017-04-21T05:11:24.005Z,38.97
2017-04-21T05:12:21.887Z,39.63
2017-04-21T05:13:19.682Z,42.41
2017-04-21T05:14:17.666Z,36.93
2017-04-21T05:15:15.588Z,38.49
2017-04-21T05:16:15.007Z,36.69
2017-04-21T05:17:12.819Z,40.09
2017-04-21T05:18:10.816Z,43.99
2017-04-21T05:19:08.631Z,41.43
2017-04-21T05:20:06.483Z,37.51
2017-04-21T05:21:04.280Z,37.57
2017-04-21T05:22:02.148Z,38.80
2017-04-21T05:22:59.973Z,41.59
2017-04-21T05:23:57.924Z,38.37
2017-04-21T05:24:55.749Z,41.39
2017-04-21T05:25:53.579Z,43.86
2017-04-21T05:26:51.482Z,46.50
2017-04-21T05:27:49.336Z,44.84
2017-04-21T05:28:47.297Z,41.89
2017-04-21T05:29:45.106Z,40.26
2017-04-21T05:30:50.827Z,43.27
2017-04-21T05:31:48.699Z,36.57
2017-04-21T05:32:46.579Z,46.26
2017-04-21T05:33:44.464Z,40.31
2017-04-21T05:34:42.361Z,38.66
2017-04-21T05:35:40.184Z,39.56
2017-04-21T05:36:38.139Z,44.00
2017-04-21T05:37:37.809Z,39.47
2017-04-21T05:38:35.712Z,41.34
2017-04-21T05:39:33.551Z,43.23
2017-04-21T05:40:31.379Z,39.97
2017-04-21T05:41:29.300Z,41.80
2017-04-21T05:42:27.165Z,38.57
2017-04-21T05:43:24.989Z,41.50
2017-04-21T05:44:22.772Z,41.87
2017-04-21T05:45:20.596Z,43.13
2017-04-21T05:46:18.388Z,45.51
2017-04-21T05:47:16.296Z,42.21
2017-04-21T05:48:14.137Z,41.63
2017-04-21T05:49:12.006Z,42.34
2017-04-21T05:50:09.859Z,44.74
2017-04-21T05:51:07.790Z,40.47
2017-04-21T05:52:05.627Z,49.01
2017-04-21T05:53:03.611Z,47.49
2017-04-21T05:54:01.432Z,48.29
2017-04-21T05:54:59.237Z,42.90
2017-04-21T05:55:57.178Z,44.56
2017-04-21T05:56:55.035Z,46.37
2017-04-21T05:57:53.005Z,43.06
2017-04-21T05:58:50.832Z,45.69
2017-04-21T05:59:48.783Z,42.04
2017-04-21T06:00:46.632Z,51.11
2017-04-21T06:01:44.480Z,44.67
2017-04-21T06:02:42.383Z,44.64
2017-04-21T06:03:40.273Z,44.51
2017-04-21T06:04:38.160Z,42.76
2017-04-21T06:05:36.057Z,43.63
2017-04-21T06:06:33.903Z,45.49
2017-04-21T06:07:31.747Z,39.96
2017-04-21T06:08:29.576Z,41.73
2017-04-21T06:09:27.503Z,43.51
2017-04-21T06:10:25.372Z,43.31
2017-04-21T06:11:23.277Z,42.10
2017-04-21T06:12:21.219Z,49.34
2017-04-21T06:13:19.173Z,42.91
2017-04-21T06:14:17.005Z,41.43
2017-04-21T06:15:14.874Z,45.89
2017-04-21T06:16:12.723Z,42.26
2017-04-21T06:17:10.557Z,48.13
2017-04-21T06:18:08.462Z,45.94
2017-04-21T06:19:06.342Z,41.26
2017-04-21T06:20:04.335Z,44.49
2017-04-21T06:21:02.192Z,44.53
2017-04-21T06:22:00.040Z,44.13
2017-04-21T06:22:58.010Z,45.14
2017-04-21T06:23:55.845Z,44.13
2017-04-21T06:24:53.701Z,45.39
2017-04-21T06:25:51.551Z,44.53
2017-04-21T06:26:49.508Z,47.20
2017-04-21T06:27:47.376Z,44.39
2017-04-21T06:28:45.228Z,38.23
2017-04-21T06:29:43.117Z,40.43
2017-04-21T06:30:40.957Z,43.36
2017-04-21T06:31:38.846Z,41.21
2017-04-21T06:32:36.692Z,42.10
2017-04-21T06:33:34.631Z,41.66
2017-04-21T06:34:32.520Z,41.79
2017-04-21T06:35:30.393Z,43.67
2017-04-21T06:36:28.303Z,41.83
2017-04-21T06:37:26.230Z,38.29
2017-04-21T06:38:24.094Z,39.34
2017-04-21T06:39:22.006Z,40.86
2017-04-21T06:40:20.174Z,41.06
2017-04-21T06:41:19.513Z,35.71
2017-04-21T06:42:17.556Z,37.87
2017-04-21T06:43:23.812Z,37.99
2017-04-21T06:44:28.286Z,37.07
2017-04-21T06:45:26.931Z,37.00
2017-04-21T06:46:30.435Z,39.34
2017-04-21T06:47:29.648Z,39.14
2017-04-21T06:48:28.783Z,39.69
2017-04-21T06:49:27.576Z,38.66
2017-04-21T06:50:40.918Z,41.19
2017-04-21T06:51:39.199Z,36.79
2017-04-21T06:52:38.401Z,37.27
2017-04-21T06:53:36.961Z,40.71
2017-04-21T06:54:36.195Z,41.83
2017-04-21T06:55:39.426Z,40.07
2017-04-21T06:56:43.348Z,41.17
2017-04-21T06:57:41.488Z,37.70
2017-04-21T06:58:40.439Z,39.54
2017-04-21T06:59:38.537Z,41.49
2017-04-21T07:00:42.660Z,37.89
2017-04-21T07:01:41.408Z,43.26
2017-04-21T07:02:57.403Z,41.20
2017-04-21T07:03:56.063Z,42.57
2017-04-21T07:04:55.680Z,38.74
2017-04-21T07:06:01.373Z,37.16
2017-04-21T07:07:08.704Z,40.60
2017-04-21T07:08:13.304Z,39.04
2017-04-21T07:09:13.952Z,41.43
2017-04-21T07:10:12.046Z,40.90
2017-04-21T07:11:11.347Z,43.41
2017-04-21T07:12:09.471Z,36.71
2017-04-21T07:13:19.847Z,41.90
2017-04-21T07:14:19.823Z,41.00
2017-04-21T07:15:19.700Z,38.51
2017-04-21T07:16:19.631Z,40.66
2017-04-21T07:17:18.896Z,36.36
2017-04-21T07:18:22.334Z,43.84
2017-04-21T07:19:20.446Z,42.90
2017-04-21T07:20:19.218Z,39.23
2017-04-21T07:21:22.679Z,39.43
2017-04-21T07:22:21.253Z,45.27
2017-04-21T07:23:34.022Z,38.70
2017-04-21T07:24:32.412Z,37.14
2017-04-21T07:25:32.401Z,37.96
2017-04-21T07:26:40.884Z,44.03
2017-04-21T07:27:39.636Z,43.39
2017-04-21T07:28:38.579Z,40.03
2017-04-21T07:29:41.676Z,39.47
2017-04-21T07:30:41.196Z,39.46
2017-04-21T07:31:40.944Z,38.01
2017-04-21T07:32:39.003Z,36.91
2017-04-21T07:33:38.387Z,38.41
2017-04-21T07:34:37.479Z,36.97
2017-04-21T07:36:40.061Z,36.66
2017-04-21T07:37:40.679Z,39.84
2017-04-21T07:38:40.413Z,39.83
2017-04-21T07:39:40.426Z,43.29
2017-04-21T07:40:43.776Z,38.74
2017-04-21T07:41:58.034Z,38.19
2017-04-21T07:42:59.290Z,40.67
2017-04-21T07:43:57.879Z,42.66
2017-04-21T07:44:57.236Z,36.86
2017-04-21T07:46:00.852Z,36.13
2017-04-21T07:46:59.535Z,38.53
2017-04-21T07:47:58.788Z,39.33
2017-04-21T07:48:58.293Z,40.83
2017-04-21T07:49:57.604Z,36.77
2017-04-21T07:50:57.383Z,38.44
2017-04-21T07:52:01.037Z,35.63
2017-04-21T07:53:05.295Z,39.73
2017-04-21T07:54:06.886Z,42.99
2017-04-21T07:55:05.664Z,38.24
2017-04-21T07:56:05.238Z,41.99
2017-04-21T07:57:04.200Z,36.29
2017-04-21T07:58:03.639Z,39.24
2017-04-21T07:59:02.511Z,36.59
2017-04-21T08:01:20.196Z,39.54
2017-04-21T08:01:31.431Z,43.07
2017-04-21T08:01:58.129Z,41.94
2017-04-21T08:02:57.057Z,38.59
2017-04-21T08:03:55.846Z,43.03
2017-04-21T08:04:54.389Z,35.50
2017-04-21T08:05:52.527Z,39.13
2017-04-21T08:06:56.441Z,37.31
2017-04-21T08:07:55.316Z,41.53
2017-04-21T08:08:54.071Z,44.69
2017-04-21T08:09:53.471Z,42.43
2017-04-21T08:10:52.728Z,34.51
2017-04-21T08:11:53.227Z,37.27
2017-04-21T08:12:52.591Z,39.83
2017-04-21T08:13:51.135Z,40.97
2017-04-21T08:14:55.675Z,37.37
2017-04-21T08:15:59.456Z,38.57
2017-04-21T08:17:04.351Z,43.73
2017-04-21T08:18:02.634Z,39.80
2017-04-21T08:19:07.463Z,38.40
2017-04-21T08:20:12.238Z,39.07
2017-04-21T08:21:14.619Z,39.67
2017-04-21T08:22:13.235Z,40.56
2017-04-21T08:23:17.524Z,37.51
2017-04-21T08:24:17.535Z,39.91
2017-04-21T08:25:23.441Z,39.16
2017-04-21T08:26:27.240Z,38.40
2017-04-21T08:27:31.003Z,40.11
2017-04-21T08:28:29.854Z,37.40
2017-04-21T08:29:28.888Z,38.27
2017-04-21T08:30:32.459Z,43.96
2017-04-21T08:31:42.548Z,41.39
2017-04-21T08:32:41.028Z,38.39
2017-04-21T08:33:39.308Z,35.63
2017-04-21T08:34:37.392Z,39.96
2017-04-21T08:35:36.062Z,38.34
2017-04-21T08:36:39.476Z,39.40
2017-04-21T08:37:39.040Z,37.64
2017-04-21T08:38:42.488Z,39.36
2017-04-21T08:39:47.020Z,37.30
2017-04-21T08:40:45.118Z,42.04
2017-04-21T08:41:44.604Z,42.10
2017-04-21T08:42:43.944Z,40.34
2017-04-21T08:43:43.619Z,37.24
2017-04-21T08:44:43.324Z,39.84
2017-04-21T08:45:47.403Z,36.84
2017-04-21T08:46:51.587Z,36.33
2017-04-21T08:47:50.325Z,36.69
2017-04-21T08:48:48.495Z,37.80
2017-04-21T08:49:46.704Z,40.56
2017-04-21T08:50:50.969Z,39.69
2017-04-21T08:51:49.901Z,39.90
2017-04-21T08:52:48.441Z,38.77
2017-04-21T08:53:52.868Z,36.93
2017-04-21T08:54:57.025Z,37.67
2017-04-21T08:55:55.775Z,42.09
2017-04-21T08:56:55.308Z,37.79
2017-04-21T08:57:54.021Z,41.31
2017-04-21T08:58:53.642Z,37.50
2017-04-21T08:59:53.016Z,38.87
2017-04-21T09:00:57.032Z,38.44
2017-04-21T09:02:01.963Z,37.86
2017-04-21T09:03:00.527Z,32.76
2017-04-21T09:03:59.480Z,38.59
2017-04-21T09:05:00.014Z,38.30
2017-04-21T09:05:59.288Z,34.09
2017-04-21T09:07:03.691Z,38.24
2017-04-21T09:08:01.815Z,36.80
2017-04-21T09:09:06.466Z,35.24
2017-04-21T09:10:05.198Z,33.41
2017-04-21T09:11:05.303Z,42.26
2017-04-21T09:12:10.619Z,33.56
2017-04-21T09:13:09.607Z,37.83
2017-04-21T09:14:08.699Z,37.63
2017-04-21T09:15:12.392Z,33.84
2017-04-21T09:16:12.114Z,34.79
2017-04-21T09:17:11.680Z,35.04
2017-04-21T09:18:10.152Z,34.31
2017-04-21T09:19:08.835Z,34.87
2017-04-21T09:20:07.177Z,40.91
2017-04-21T09:21:05.269Z,37.76
2017-04-21T09:22:04.013Z,40.99
2017-04-21T09:23:02.633Z,37.30
2017-04-21T09:24:01.274Z,37.77
2017-04-21T09:25:00.652Z,35.86
2017-04-21T09:26:00.220Z,38.44
2017-04-21T09:26:59.681Z,34.06
2017-04-21T09:27:58.829Z,41.13
2017-04-21T09:28:57.788Z,40.87
2017-04-21T09:29:56.718Z,37.41
2017-04-21T09:31:02.817Z,40.54
2017-04-21T09:31:54.620Z,38.04
2017-04-21T09:32:52.896Z,38.16
2017-04-21T09:33:52.445Z,38.80
2017-04-21T09:35:34.397Z,39.51
2017-04-21T09:35:50.293Z,36.00
2017-04-21T09:36:49.673Z,38.80
2017-04-21T09:37:48.525Z,39.21
2017-04-21T09:38:47.293Z,37.29
2017-04-21T09:39:45.517Z,38.86
2017-04-21T09:40:50.786Z,39.03
2017-04-21T09:41:49.526Z,35.91
2017-04-21T09:42:54.160Z,38.26
2017-04-21T09:43:52.890Z,37.10
2017-04-21T09:44:52.152Z,37.13
2017-04-21T09:45:51.769Z,36.26
2017-04-21T09:46:51.044Z,37.69
2017-04-21T09:47:50.087Z,35.99
2017-04-21T09:48:48.437Z,34.99
2017-04-21T09:49:47.083Z,35.99
2017-04-21T09:50:45.132Z,38.73
2017-04-21T09:53:46.274Z,30.71
2017-04-21T09:56:04.955Z,38.77
2017-04-21T09:56:05.052Z,39.87
2017-04-21T09:57:02.409Z,38.83
2017-04-21T09:58:30.465Z,34.50
2017-04-21T09:59:53.505Z,37.03
2017-04-21T10:01:22.007Z,36.57
2017-04-21T10:02:28.037Z,37.73
2017-04-21T10:03:07.834Z,36.43
2017-04-21T10:03:46.858Z,36.04
2017-04-21T10:04:49.196Z,34.96
2017-04-21T10:04:53.981Z,38.00
2017-04-21T10:06:33.789Z,39.17
2017-04-21T10:07:29.917Z,33.63
2017-04-21T10:07:39.271Z,39.59
2017-04-21T10:07:42.293Z,34.69
2017-04-21T10:08:22.015Z,34.14
2017-04-21T10:08:28.863Z,35.97
2017-04-21T10:09:33.857Z,38.14
2017-04-21T10:10:38.116Z,35.70
2017-04-21T10:11:37.162Z,35.06
2017-04-21T10:12:35.726Z,36.20
2017-04-21T10:13:33.969Z,40.99
2017-04-21T10:14:32.431Z,35.27
2017-04-21T10:15:36.144Z,40.31
2017-04-21T10:16:40.644Z,35.26
2017-04-21T10:17:42.820Z,35.07
2017-04-21T10:18:40.902Z,33.96
2017-04-21T10:19:40.412Z,38.19
2017-04-21T10:20:45.742Z,35.37
2017-04-21T10:21:49.648Z,40.34
2017-04-21T10:22:48.292Z,36.84
2017-04-21T10:23:48.004Z,33.44
2017-04-21T10:24:47.350Z,39.26
2017-04-21T10:25:46.292Z,33.81
2017-04-21T10:26:46.005Z,38.73
2017-04-21T10:27:44.593Z,35.89
2017-04-21T10:28:43.737Z,36.23
2017-04-21T10:29:43.081Z,40.64
2017-04-21T10:30:41.962Z,38.16
2017-04-21T10:31:40.647Z,36.27
2017-04-21T10:32:39.664Z,39.69
2017-04-21T10:33:39.056Z,39.11
2017-04-21T10:34:38.891Z,37.80
2017-04-21T10:35:38.843Z,38.84
2017-04-21T10:36:37.563Z,38.53
2017-04-21T10:37:36.632Z,40.14
2017-04-21T10:38:36.625Z,39.61
2017-04-21T10:39:35.267Z,38.10
2017-04-21T10:40:34.253Z,39.69
2017-04-21T10:41:39.409Z,38.47
2017-04-21T10:42:37.680Z,40.17
2017-04-21T10:43:37.980Z,53.90
2017-04-21T10:44:41.224Z,38.67
2017-04-21T10:45:45.179Z,40.69
2017-04-21T10:46:44.224Z,42.00
2017-04-21T10:47:44.297Z,38.53
2017-04-21T10:48:43.500Z,40.80
2017-04-21T10:49:47.881Z,41.83
2017-04-21T10:50:51.324Z,42.43
2017-04-21T10:51:50.652Z,42.11
2017-04-21T10:52:55.672Z,42.99
2017-04-21T10:53:55.189Z,39.09
2017-04-21T10:54:53.367Z,40.56
2017-04-21T10:55:51.752Z,37.27
2017-04-21T10:56:50.106Z,43.19
2017-04-21T10:57:48.713Z,43.13
2017-04-21T10:58:47.080Z,40.83
2017-04-21T10:59:45.220Z,39.77
2017-04-21T11:00:43.619Z,41.10
2017-04-21T11:01:47.637Z,45.21
2017-04-21T11:02:47.629Z,41.83
2017-04-21T11:03:51.393Z,44.29
2017-04-21T11:04:49.979Z,45.27
2017-04-21T11:05:49.108Z,38.60
2017-04-21T11:06:47.844Z,39.67
2017-04-21T11:07:51.289Z,40.89
2017-04-21T11:08:49.593Z,40.93
2017-04-21T11:09:48.580Z,44.27
2017-04-21T11:10:56.464Z,39.04
2017-04-21T11:11:55.867Z,41.99
2017-04-21T11:12:55.052Z,40.24
2017-04-21T11:13:53.421Z,38.07
2017-04-21T11:14:52.016Z,41.30
2017-04-21T11:15:52.103Z,39.30
2017-04-21T11:16:51.300Z,40.67
2017-04-21T11:17:51.546Z,40.37
2017-04-21T11:18:50.956Z,43.89
2017-04-21T11:19:49.515Z,43.80
2017-04-21T11:20:48.469Z,40.37
2017-04-21T11:21:52.337Z,41.20
2017-04-21T11:22:54.392Z,44.66
2017-04-21T11:23:59.845Z,40.89
2017-04-21T11:25:00.209Z,41.99
2017-04-21T11:25:58.883Z,42.17
2017-04-21T11:26:58.335Z,39.66
2017-04-21T11:27:57.966Z,38.40
2017-04-21T11:28:55.960Z,42.73
2017-04-21T11:29:54.589Z,41.14
2017-04-21T11:30:53.880Z,38.69
2017-04-21T11:31:52.118Z,38.93
2017-04-21T11:32:54.628Z,40.00
2017-04-21T11:33:54.192Z,40.40
2017-04-21T11:34:52.840Z,42.26
2017-04-21T11:35:57.002Z,41.07
2017-04-21T11:36:55.180Z,40.97
2017-04-21T11:37:53.545Z,40.74
2017-04-21T11:38:52.336Z,41.44
2017-04-21T11:39:51.196Z,42.71
2017-04-21T11:40:49.168Z,41.01
2017-04-21T11:41:47.584Z,44.34
2017-04-21T11:42:51.760Z,41.99
2017-04-21T11:43:56.560Z,45.04
2017-04-21T11:44:55.418Z,40.73
2017-04-21T11:45:59.187Z,39.33
2017-04-21T11:47:03.163Z,41.23
2017-04-21T11:48:01.356Z,40.87
2017-04-21T11:49:03.916Z,40.51
2017-04-21T11:50:02.234Z,38.59
2017-04-21T11:51:00.461Z,45.06
2017-04-21T11:52:05.739Z,42.50
2017-04-21T11:53:06.639Z,37.90
2017-04-21T11:54:06.812Z,42.24
2017-04-21T11:55:07.476Z,40.59
2017-04-21T11:56:07.382Z,45.79
2017-04-21T11:57:05.482Z,38.73
2017-04-21T11:58:06.632Z,40.31
2017-04-21T11:59:05.148Z,39.43
2017-04-21T12:00:04.283Z,39.51
2017-04-21T12:01:03.036Z,41.99
2017-04-21T12:02:01.690Z,40.87
2017-04-21T12:03:01.242Z,42.41
2017-04-21T12:04:01.723Z,39.21
2017-04-21T12:05:05.597Z,39.10
2017-04-21T12:06:09.776Z,41.40
2017-04-21T12:07:08.676Z,39.44
2017-04-21T12:08:09.779Z,43.34
2017-04-21T12:09:13.991Z,42.73
2017-04-21T12:10:12.780Z,38.14
2017-04-21T12:11:13.403Z,42.34
2017-04-21T12:12:13.134Z,45.96
2017-04-21T12:13:12.280Z,40.87
2017-04-21T12:14:12.657Z,53.10
2017-04-21T12:15:11.467Z,36.29
2017-04-21T12:16:11.441Z,40.20
2017-04-21T12:17:10.581Z,39.63
2017-04-21T12:18:15.881Z,41.09
2017-04-21T12:19:14.438Z,39.09
2017-04-21T12:20:18.672Z,41.16
2017-04-21T12:21:18.059Z,39.39
2017-04-21T12:22:17.087Z,39.17
2017-04-21T12:23:20.861Z,42.31
2017-04-21T12:24:25.316Z,39.77
2017-04-21T12:25:23.629Z,41.59
2017-04-21T12:26:22.436Z,38.09
2017-04-21T12:27:26.579Z,36.76
2017-04-21T12:28:26.292Z,44.67
2017-04-21T12:29:25.715Z,39.66
2017-04-21T12:30:29.777Z,40.47
2017-04-21T12:31:29.156Z,40.86
2017-04-21T12:32:33.167Z,39.17
2017-04-21T12:33:32.892Z,40.31
2017-04-21T12:34:32.286Z,42.63
2017-04-21T12:35:30.111Z,37.76
2017-04-21T12:36:28.020Z,40.34
2017-04-21T12:37:26.108Z,42.24
2017-04-21T12:38:23.975Z,37.97
2017-04-21T12:39:21.843Z,41.30
2017-04-21T12:40:19.710Z,36.66
2017-04-21T12:41:17.585Z,41.59
2017-04-21T12:42:15.443Z,39.91
2017-04-21T12:43:13.290Z,37.94
2017-04-21T12:44:11.138Z,42.57
2017-04-21T12:45:09.130Z,40.61
2017-04-21T12:46:06.999Z,38.91
2017-04-21T12:47:04.957Z,40.43
2017-04-21T12:48:02.822Z,41.89
2017-04-21T12:49:01.871Z,42.10
2017-04-21T12:49:59.764Z,36.43
2017-04-21T12:50:57.633Z,49.14
2017-04-21T12:51:55.517Z,40.83
2017-04-21T12:52:53.396Z,42.67